createdAt,value
2022-08-24T00:00:46.764Z,18.44
2022-08-24T00:03:15.669Z,18.40
2022-08-24T00:05:44.500Z,18.40
2022-08-24T00:08:13.520Z,18.39
2022-08-24T00:10:42.993Z,18.37
2022-08-24T00:13:12.240Z,18.30
2022-08-24T00:15:41.576Z,18.26
2022-08-24T00:18:12.225Z,18.25
2022-08-24T00:20:45.341Z,18.19
2022-08-24T00:23:14.401Z,18.16
2022-08-24T00:25:43.237Z,18.11
2022-08-24T00:28:12.472Z,18.10
2022-08-24T00:30:41.604Z,18.08
2022-08-24T00:33:11.748Z,18.12
2022-08-24T00:35:40.573Z,18.14
2022-08-24T00:38:09.559Z,18.11
2022-08-24T00:40:42.708Z,18.10
2022-08-24T00:43:12.658Z,18.08
2022-08-24T00:45:47.427Z,18.12
2022-08-24T00:48:23.116Z,18.14
2022-08-24T00:51:00.483Z,18.11
2022-08-24T00:53:35.980Z,18.11
2022-08-24T00:56:10.255Z,18.12
2022-08-24T00:58:46.294Z,18.15
2022-08-24T01:01:23.078Z,18.18
2022-08-24T01:03:56.981Z,18.17
2022-08-24T01:06:26.149Z,18.15
2022-08-24T01:08:56.594Z,18.16
2022-08-24T01:11:33.696Z,18.16
2022-08-24T01:14:05.407Z,18.20
2022-08-24T01:16:51.656Z,18.21
2022-08-24T01:19:34.298Z,18.20
2022-08-24T01:22:20.811Z,18.18
2022-08-24T01:24:51.352Z,18.19
2022-08-24T01:27:23.902Z,18.20
2022-08-24T01:30:00.011Z,18.20
2022-08-24T01:32:29.135Z,18.21
2022-08-24T01:34:58.856Z,18.23
2022-08-24T01:37:28.877Z,18.26
2022-08-24T01:40:00.626Z,18.29
2022-08-24T01:42:31.061Z,18.30
2022-08-24T01:44:59.779Z,18.31
2022-08-24T01:47:28.903Z,18.31
2022-08-24T01:49:59.140Z,18.32
2022-08-24T01:52:43.441Z,18.34
2022-08-24T01:55:22.502Z,18.36
2022-08-24T01:57:51.910Z,18.35
2022-08-24T02:00:20.876Z,18.35
2022-08-24T02:02:49.996Z,18.30
2022-08-24T02:05:19.369Z,18.28
2022-08-24T02:07:48.890Z,18.25
2022-08-24T02:10:20.233Z,18.28
2022-08-24T02:12:58.771Z,18.28
2022-08-24T02:15:31.615Z,18.30
2022-08-24T02:18:01.634Z,18.30
2022-08-24T02:20:30.585Z,18.25
2022-08-24T02:22:59.677Z,18.21
2022-08-24T02:25:30.874Z,18.18
2022-08-24T02:28:00.638Z,18.15
2022-08-24T02:30:32.291Z,18.12
2022-08-24T02:33:02.704Z,18.07
2022-08-24T02:35:32.734Z,18.03
2022-08-24T02:38:03.121Z,17.97
2022-08-24T02:40:34.868Z,17.96
2022-08-24T02:43:06.032Z,17.95
2022-08-24T02:45:39.940Z,17.94
2022-08-24T02:48:08.943Z,17.92
2022-08-24T02:50:42.725Z,17.86
2022-08-24T02:53:14.149Z,17.84
2022-08-24T02:55:45.550Z,17.82
2022-08-24T02:58:18.932Z,17.80
2022-08-24T03:00:50.416Z,17.82
2022-08-24T03:03:21.854Z,17.86
2022-08-24T03:05:50.722Z,17.87
2022-08-24T03:08:21.117Z,17.86
2022-08-24T03:10:51.369Z,17.86
2022-08-24T03:13:20.349Z,17.84
2022-08-24T03:15:49.348Z,17.85
2022-08-24T03:18:18.161Z,17.88
2022-08-24T03:20:55.327Z,17.87
2022-08-24T03:23:25.010Z,17.90
2022-08-24T03:25:56.495Z,17.91
2022-08-24T03:28:26.906Z,17.90
2022-08-24T03:30:57.095Z,17.91
2022-08-24T03:33:26.118Z,17.88
2022-08-24T03:35:55.419Z,17.90
2022-08-24T03:38:25.644Z,17.93
2022-08-24T03:40:55.868Z,17.96
2022-08-24T03:43:42.260Z,17.98
2022-08-24T03:46:12.589Z,17.99
2022-08-24T03:48:44.472Z,17.98
2022-08-24T03:51:17.866Z,17.97
2022-08-24T03:53:49.101Z,18.00
2022-08-24T03:56:19.835Z,17.98
2022-08-24T03:58:49.641Z,18.03
2022-08-24T04:01:19.742Z,18.03
2022-08-24T04:03:50.811Z,18.04
2022-08-24T04:06:21.984Z,18.01
2022-08-24T04:08:51.355Z,18.00
2022-08-24T04:11:28.228Z,17.98
2022-08-24T04:13:59.703Z,18.03
2022-08-24T04:16:30.646Z,18.03
2022-08-24T04:19:14.978Z,18.03
2022-08-24T04:21:44.621Z,18.02
2022-08-24T04:24:14.827Z,18.01
2022-08-24T04:26:46.185Z,18.02
2022-08-24T04:29:21.376Z,18.05
2022-08-24T04:31:54.004Z,18.06
2022-08-24T04:34:24.374Z,18.07
2022-08-24T04:36:53.420Z,18.09
2022-08-24T04:39:22.166Z,18.07
2022-08-24T04:42:14.724Z,18.05
2022-08-24T04:44:44.784Z,18.06
2022-08-24T04:47:15.672Z,18.02
2022-08-24T04:49:44.507Z,18.01
2022-08-24T04:52:13.435Z,18.03
2022-08-24T04:54:43.989Z,18.03
2022-08-24T04:57:19.790Z,18.02
2022-08-24T04:59:49.582Z,18.00
2022-08-24T05:02:18.969Z,18.00
2022-08-24T05:04:50.919Z,18.02
2022-08-24T05:07:20.149Z,18.05
2022-08-24T05:09:48.925Z,18.09
2022-08-24T05:12:23.459Z,18.09
2022-08-24T05:15:00.812Z,18.13
2022-08-24T05:17:32.537Z,18.16
2022-08-24T05:20:01.510Z,18.16
2022-08-24T05:22:32.622Z,18.17
2022-08-24T05:25:01.630Z,18.18
2022-08-24T05:27:33.949Z,18.22
2022-08-24T05:30:03.333Z,18.23
2022-08-24T05:32:32.269Z,18.24
2022-08-24T05:35:04.844Z,18.26
2022-08-24T05:37:37.157Z,18.30
2022-08-24T05:40:20.728Z,18.32
2022-08-24T05:42:55.908Z,18.36
2022-08-24T05:45:24.902Z,18.38
2022-08-24T05:47:53.889Z,18.40
2022-08-24T05:50:45.818Z,18.43
2022-08-24T05:53:15.754Z,18.46
2022-08-24T05:55:47.068Z,18.50
2022-08-24T05:58:23.160Z,18.56
2022-08-24T06:01:01.147Z,18.62
2022-08-24T06:03:29.909Z,18.64
2022-08-24T06:05:58.853Z,18.68
2022-08-24T06:08:27.729Z,18.74
2022-08-24T06:10:56.903Z,18.77
2022-08-24T06:13:27.119Z,18.80
2022-08-24T06:16:20.725Z,18.83
2022-08-24T06:18:51.321Z,18.87
2022-08-24T06:21:23.614Z,18.91
2022-08-24T06:23:53.627Z,18.91
2022-08-24T06:26:40.901Z,18.95
2022-08-24T06:29:12.542Z,18.99
2022-08-24T06:31:54.383Z,19.02
2022-08-24T06:34:26.929Z,19.06
2022-08-24T06:36:56.017Z,19.11
2022-08-24T06:39:27.842Z,19.18
2022-08-24T06:41:58.661Z,19.25
2022-08-24T06:44:34.299Z,19.33
2022-08-24T06:47:13.788Z,19.37
2022-08-24T06:49:42.860Z,19.41
2022-08-24T06:52:12.382Z,19.43
2022-08-24T06:54:41.529Z,19.46
2022-08-24T06:57:10.341Z,19.50
2022-08-24T06:59:43.172Z,19.56
2022-08-24T07:02:15.926Z,19.61
2022-08-24T07:04:46.208Z,19.66
2022-08-24T07:07:33.306Z,19.73
2022-08-24T07:10:03.335Z,19.81
2022-08-24T07:12:32.729Z,19.89
2022-08-24T07:15:02.893Z,19.99
2022-08-24T07:17:31.758Z,20.11
2022-08-24T07:20:00.527Z,20.20
2022-08-24T07:22:49.543Z,20.26
2022-08-24T07:25:19.359Z,20.31
2022-08-24T07:27:49.671Z,20.34
2022-08-24T07:30:27.945Z,20.37
2022-08-24T07:32:59.287Z,20.41
2022-08-24T07:35:32.450Z,20.42
2022-08-24T07:38:02.975Z,20.47
2022-08-24T07:40:36.460Z,20.51
2022-08-24T07:43:18.159Z,20.56
2022-08-24T07:45:52.430Z,20.53
2022-08-24T07:48:21.480Z,20.68
2022-08-24T07:50:53.309Z,20.70
2022-08-24T07:53:27.867Z,20.78
2022-08-24T07:56:01.318Z,20.84
2022-08-24T07:58:31.494Z,20.87
2022-08-24T08:01:02.466Z,20.88
2022-08-24T08:03:33.563Z,20.85
2022-08-24T08:06:11.179Z,20.83
2022-08-24T08:08:45.704Z,20.80
2022-08-24T08:11:14.815Z,20.82
2022-08-24T08:16:21.395Z,20.84
2022-08-24T08:18:56.501Z,20.82
2022-08-24T08:21:52.370Z,20.83
2022-08-24T08:24:21.204Z,20.79
2022-08-24T08:26:55.735Z,20.78
2022-08-24T08:29:32.895Z,20.76
2022-08-24T08:32:04.450Z,20.76
2022-08-24T08:34:34.154Z,20.76
2022-08-24T08:37:04.488Z,20.75
2022-08-24T08:39:33.729Z,20.74
2022-08-24T08:42:37.286Z,20.73
2022-08-24T08:45:42.536Z,20.72
2022-08-24T08:49:35.056Z,20.76
2022-08-24T08:52:41.477Z,20.80
2022-08-24T08:55:29.214Z,20.85
2022-08-24T08:58:29.844Z,20.98
2022-08-24T09:01:10.860Z,21.09
2022-08-24T09:04:48.727Z,21.31
2022-08-24T09:07:40.638Z,21.50
2022-08-24T09:10:51.946Z,21.62
2022-08-24T09:13:44.539Z,21.74
2022-08-24T09:16:39.090Z,21.76
2022-08-24T09:19:41.427Z,21.90
2022-08-24T09:22:15.898Z,21.95
2022-08-24T09:25:07.361Z,22.07
2022-08-24T09:28:30.088Z,22.14
2022-08-24T09:31:51.751Z,22.19
2022-08-24T09:34:37.662Z,22.23
2022-08-24T09:37:31.898Z,22.28
2022-08-24T09:40:27.214Z,22.30
2022-08-24T09:43:53.472Z,22.28
2022-08-24T09:47:23.529Z,22.28
2022-08-24T09:50:35.394Z,22.19
2022-08-24T09:53:46.538Z,22.12
2022-08-24T09:56:53.823Z,22.17
2022-08-24T09:59:54.276Z,22.26
2022-08-24T10:02:50.482Z,22.44
2022-08-24T10:05:37.015Z,22.55
2022-08-24T10:08:21.406Z,22.60
2022-08-24T10:11:00.085Z,22.59
2022-08-24T10:13:56.650Z,22.61
2022-08-24T10:16:40.015Z,22.46
2022-08-24T10:19:39.413Z,22.53
2022-08-24T10:22:32.595Z,22.69
2022-08-24T10:25:32.546Z,22.80
2022-08-24T10:28:41.858Z,22.70
2022-08-24T10:31:14.523Z,22.70
2022-08-24T10:34:04.386Z,22.66
2022-08-24T10:37:03.685Z,22.72
2022-08-24T10:40:13.290Z,22.74
2022-08-24T10:43:35.894Z,22.86
2022-08-24T10:46:40.609Z,23.47
2022-08-24T10:50:21.137Z,23.97
2022-08-24T10:53:21.039Z,24.54
2022-08-24T10:56:05.681Z,24.72
2022-08-24T10:58:53.356Z,24.65
2022-08-24T11:01:31.303Z,24.47
2022-08-24T11:04:09.812Z,24.28
2022-08-24T11:06:41.839Z,24.15
2022-08-24T11:09:19.762Z,24.05
2022-08-24T11:11:52.450Z,23.95
2022-08-24T11:14:32.096Z,23.87
2022-08-24T11:17:18.193Z,23.79
2022-08-24T11:19:47.450Z,23.69
2022-08-24T11:23:01.248Z,23.59
2022-08-24T11:25:33.534Z,23.52
2022-08-24T11:28:11.081Z,23.45
2022-08-24T11:30:42.349Z,23.38
2022-08-24T11:33:30.948Z,23.33
2022-08-24T11:36:01.563Z,23.29
2022-08-24T11:38:35.028Z,23.28
2022-08-24T11:41:14.587Z,23.25
2022-08-24T11:44:02.086Z,23.26
2022-08-24T11:46:46.892Z,23.27
2022-08-24T11:49:34.311Z,23.22
2022-08-24T11:52:12.876Z,23.06
2022-08-24T11:54:58.517Z,22.99
2022-08-24T11:57:47.579Z,22.91
2022-08-24T12:00:22.037Z,22.90
2022-08-24T12:03:02.696Z,22.78
2022-08-24T12:05:45.885Z,22.96
2022-08-24T12:08:28.741Z,23.12
2022-08-24T12:11:09.771Z,23.24
2022-08-24T12:13:49.298Z,23.35
2022-08-24T12:16:31.418Z,23.51
2022-08-24T12:19:10.304Z,23.59
2022-08-24T12:21:45.376Z,23.68
2022-08-24T12:24:21.340Z,23.83
2022-08-24T12:27:00.677Z,23.90
2022-08-24T12:29:38.261Z,23.95
2022-08-24T12:32:16.449Z,24.00
2022-08-24T12:34:58.850Z,24.14
2022-08-24T12:37:35.041Z,24.39
2022-08-24T12:40:15.322Z,24.47
2022-08-24T12:42:52.755Z,24.69
2022-08-24T12:45:24.418Z,24.80
2022-08-24T12:48:02.705Z,24.82
2022-08-24T12:50:45.481Z,24.82
2022-08-24T12:53:50.055Z,24.79
2022-08-24T12:56:57.915Z,24.76
2022-08-24T12:59:33.318Z,24.70
2022-08-24T13:02:08.373Z,24.64
2022-08-24T13:04:55.572Z,24.59
2022-08-24T13:07:32.981Z,24.51
2022-08-24T13:10:14.680Z,24.44
2022-08-24T13:13:13.462Z,24.41
2022-08-24T13:16:03.625Z,24.50
2022-08-24T13:19:33.902Z,24.83
2022-08-24T13:22:49.061Z,25.42
2022-08-24T13:25:53.610Z,25.85
2022-08-24T13:28:56.853Z,26.11
2022-08-24T13:31:34.683Z,26.48
2022-08-24T13:34:44.417Z,26.67
2022-08-24T13:37:19.088Z,26.60
2022-08-24T13:40:10.029Z,26.56
2022-08-24T13:43:11.754Z,26.37
2022-08-24T13:45:53.713Z,26.05
2022-08-24T13:48:45.172Z,25.92
2022-08-24T13:51:34.759Z,25.77
2022-08-24T13:54:31.507Z,25.45
2022-08-24T13:57:30.865Z,25.26
2022-08-24T14:00:34.333Z,25.21
2022-08-24T14:03:30.289Z,25.08
2022-08-24T14:06:21.368Z,25.17
2022-08-24T14:09:04.834Z,25.62
2022-08-24T14:12:07.432Z,26.13
2022-08-24T14:15:02.533Z,26.41
2022-08-24T14:17:53.895Z,27.02
2022-08-24T14:21:09.131Z,27.75
2022-08-24T14:23:58.305Z,27.51
2022-08-24T14:27:10.489Z,27.25
2022-08-24T14:29:45.462Z,27.18
2022-08-24T14:32:32.751Z,27.18
2022-08-24T14:35:37.419Z,27.48
2022-08-24T14:38:50.668Z,27.42
2022-08-24T14:41:50.297Z,27.39
2022-08-24T14:44:54.356Z,27.52
2022-08-24T14:47:42.028Z,27.36
2022-08-24T14:50:21.693Z,27.34
2022-08-24T14:53:10.742Z,27.31
2022-08-24T14:55:56.968Z,27.25
2022-08-24T14:58:44.830Z,27.15
2022-08-24T15:01:42.517Z,27.05
2022-08-24T15:04:44.494Z,26.63
2022-08-24T15:07:32.645Z,26.40
2022-08-24T15:10:05.761Z,26.32
2022-08-24T15:12:42.739Z,26.28
2022-08-24T15:15:21.742Z,26.14
2022-08-24T15:18:06.406Z,25.99
2022-08-24T15:20:58.015Z,25.87
2022-08-24T15:23:57.246Z,25.79
2022-08-24T15:26:46.074Z,25.64
2022-08-24T15:29:21.498Z,25.57
2022-08-24T15:32:07.987Z,25.40
2022-08-24T15:34:45.583Z,25.31
2022-08-24T15:37:17.059Z,24.97
2022-08-24T15:39:45.898Z,25.03
2022-08-24T15:42:16.909Z,25.03
2022-08-24T15:44:50.220Z,25.00
2022-08-24T15:47:28.894Z,24.96
2022-08-24T15:50:02.952Z,24.96
2022-08-24T15:52:51.885Z,24.94
2022-08-24T15:55:47.894Z,24.90
2022-08-24T15:58:42.430Z,24.79
2022-08-24T16:01:42.332Z,24.74
2022-08-24T16:04:35.428Z,24.68
2022-08-24T16:07:05.930Z,24.61
2022-08-24T16:09:38.868Z,24.59
2022-08-24T16:12:16.435Z,24.55
2022-08-24T16:14:50.338Z,24.56
2022-08-24T16:17:35.987Z,24.57
2022-08-24T16:20:12.399Z,24.50
2022-08-24T16:22:57.015Z,24.46
2022-08-24T16:25:32.845Z,24.41
2022-08-24T16:28:12.768Z,24.39
2022-08-24T16:30:52.599Z,24.31
2022-08-24T16:33:45.730Z,24.26
2022-08-24T16:36:18.063Z,24.23
2022-08-24T16:38:51.511Z,24.19
2022-08-24T16:41:26.139Z,24.16
2022-08-24T16:43:55.164Z,24.13
2022-08-24T16:46:26.934Z,24.08
2022-08-24T16:48:55.988Z,24.04
2022-08-24T16:51:26.263Z,24.00
2022-08-24T16:53:58.815Z,23.91
2022-08-24T16:56:30.238Z,23.86
2022-08-24T16:59:00.488Z,23.81
2022-08-24T17:01:30.585Z,23.75
2022-08-24T17:03:59.547Z,23.70
2022-08-24T17:06:28.572Z,23.69
2022-08-24T17:09:00.570Z,23.65
2022-08-24T17:11:29.848Z,23.62
2022-08-24T17:13:58.640Z,23.58
2022-08-24T17:16:28.999Z,23.54
2022-08-24T17:19:01.180Z,23.49
2022-08-24T17:21:30.337Z,23.39
2022-08-24T17:24:01.769Z,23.33
2022-08-24T17:26:33.028Z,23.29
2022-08-24T17:29:09.527Z,23.21
2022-08-24T17:31:40.679Z,23.19
2022-08-24T17:34:11.503Z,23.20
2022-08-24T17:36:43.694Z,23.17
2022-08-24T17:39:16.707Z,23.12
2022-08-24T17:41:47.135Z,23.05
2022-08-24T17:44:25.175Z,23.04
2022-08-24T17:46:59.085Z,22.99
2022-08-24T17:49:30.281Z,22.96
2022-08-24T17:52:28.003Z,22.93
2022-08-24T17:55:14.615Z,22.91
2022-08-24T17:57:49.039Z,22.87
2022-08-24T18:00:20.714Z,22.84
2022-08-24T18:02:52.097Z,22.75
2022-08-24T18:05:22.231Z,22.63
2022-08-24T18:07:58.940Z,22.57
2022-08-24T18:10:32.773Z,22.53
2022-08-24T18:13:04.216Z,22.46
2022-08-24T18:15:40.305Z,22.41
2022-08-24T18:18:12.536Z,22.40
2022-08-24T18:20:43.864Z,22.36
2022-08-24T18:23:14.394Z,22.29
2022-08-24T18:25:53.783Z,22.26
2022-08-24T18:28:24.718Z,22.19
2022-08-24T18:30:54.248Z,22.14
2022-08-24T18:33:24.935Z,22.08
2022-08-24T18:35:54.692Z,22.01
2022-08-24T18:38:27.293Z,21.97
2022-08-24T18:40:58.766Z,21.92
2022-08-24T18:43:31.295Z,21.90
2022-08-24T18:46:06.908Z,21.87
2022-08-24T18:48:36.434Z,21.79
2022-08-24T18:51:07.286Z,21.79
2022-08-24T18:53:36.999Z,21.76
2022-08-24T18:56:12.453Z,21.69
2022-08-24T18:58:42.405Z,21.62
2022-08-24T19:01:13.331Z,21.61
2022-08-24T19:03:43.639Z,21.56
2022-08-24T19:06:12.488Z,21.52
2022-08-24T19:08:45.155Z,21.48
2022-08-24T19:11:19.864Z,21.44
2022-08-24T19:13:49.802Z,21.39
2022-08-24T19:16:18.881Z,21.39
2022-08-24T19:18:51.122Z,21.32
2022-08-24T19:21:21.155Z,21.28
2022-08-24T19:23:51.041Z,21.18
2022-08-24T19:26:25.282Z,21.15
2022-08-24T19:28:54.982Z,21.21
2022-08-24T19:31:30.049Z,21.15
2022-08-24T19:34:03.431Z,21.10
2022-08-24T19:36:33.226Z,21.08
2022-08-24T19:39:03.854Z,21.03
2022-08-24T19:41:39.802Z,21.00
2022-08-24T19:44:32.584Z,20.96
2022-08-24T19:47:02.458Z,20.91
2022-08-24T19:49:34.875Z,20.87
2022-08-24T19:52:04.610Z,20.84
2022-08-24T19:54:38.165Z,20.85
2022-08-24T19:57:41.503Z,20.87
2022-08-24T20:00:35.149Z,20.82
2022-08-24T20:03:06.295Z,20.75
2022-08-24T20:05:37.625Z,20.70
2022-08-24T20:08:06.826Z,20.66
2022-08-24T20:10:35.964Z,20.64
2022-08-24T20:13:06.758Z,20.60
2022-08-24T20:15:36.457Z,20.56
2022-08-24T20:18:05.826Z,20.57
2022-08-24T20:20:34.980Z,20.51
2022-08-24T20:23:06.428Z,20.50
2022-08-24T20:25:37.437Z,20.44
2022-08-24T20:30:57.680Z,20.34
2022-08-24T20:33:28.068Z,20.33
2022-08-24T20:35:58.060Z,20.26
2022-08-24T20:38:29.389Z,20.24
2022-08-24T20:41:02.137Z,20.24
2022-08-24T20:43:32.423Z,20.20
2022-08-24T20:46:01.861Z,20.14
2022-08-24T20:48:34.129Z,20.13
2022-08-24T20:51:03.448Z,20.12
2022-08-24T20:53:32.246Z,20.08
2022-08-24T20:56:08.585Z,20.05
2022-08-24T20:58:40.666Z,20.05
2022-08-24T21:01:10.211Z,20.01
2022-08-24T21:03:39.413Z,19.96
2022-08-24T21:06:09.946Z,19.96
2022-08-24T21:08:38.902Z,19.90
2022-08-24T21:11:07.761Z,19.88
2022-08-24T21:13:37.907Z,19.94
2022-08-24T21:16:07.675Z,19.92
2022-08-24T21:18:37.319Z,19.87
2022-08-24T21:21:06.741Z,19.83
2022-08-24T21:23:36.197Z,19.85
2022-08-24T21:26:08.878Z,19.85
2022-08-24T21:28:43.560Z,19.83
2022-08-24T21:31:12.532Z,19.81
2022-08-24T21:33:58.745Z,19.77
2022-08-24T21:36:31.959Z,19.70
2022-08-24T21:39:00.833Z,19.69
2022-08-24T21:41:29.960Z,19.62
2022-08-24T21:44:00.635Z,19.58
2022-08-24T21:46:34.940Z,19.54
2022-08-24T21:49:04.011Z,19.58
2022-08-24T21:51:33.063Z,19.59
2022-08-24T21:54:02.025Z,19.51
2022-08-24T21:56:34.532Z,19.46
2022-08-24T21:59:05.049Z,19.44
2022-08-24T22:01:34.052Z,19.44
2022-08-24T22:04:03.074Z,19.45
2022-08-24T22:06:33.622Z,19.47
2022-08-24T22:09:04.815Z,19.43
2022-08-24T22:11:33.691Z,19.39
2022-08-24T22:14:05.431Z,19.38
2022-08-24T22:16:36.895Z,19.34
2022-08-24T22:19:06.295Z,19.28
2022-08-24T22:21:36.415Z,19.27
2022-08-24T22:24:05.952Z,19.25
2022-08-24T22:26:36.801Z,19.21
2022-08-24T22:29:09.949Z,19.23
2022-08-24T22:31:42.492Z,19.20
2022-08-24T22:34:16.581Z,19.16
2022-08-24T22:36:50.542Z,19.14
2022-08-24T22:39:19.760Z,19.15
2022-08-24T22:41:48.552Z,19.10
2022-08-24T22:44:22.412Z,19.09
2022-08-24T22:46:54.089Z,19.10
2022-08-24T22:49:26.258Z,19.08
2022-08-24T22:51:55.591Z,19.10
2022-08-24T22:54:26.644Z,19.09
2022-08-24T22:56:58.397Z,19.02
2022-08-24T22:59:31.807Z,18.94
2022-08-24T23:02:00.493Z,18.91
2022-08-24T23:04:33.250Z,18.88
2022-08-24T23:07:03.170Z,18.89
2022-08-24T23:09:44.069Z,18.86
2022-08-24T23:12:19.815Z,18.82
2022-08-24T23:14:51.482Z,18.83
2022-08-24T23:17:22.312Z,18.80
2022-08-24T23:20:05.878Z,18.74
2022-08-24T23:22:38.928Z,18.72
2022-08-24T23:25:10.553Z,18.70
2022-08-24T23:27:39.669Z,18.67
2022-08-24T23:30:15.142Z,18.64
2022-08-24T23:32:44.193Z,18.62
2022-08-24T23:35:13.167Z,18.60
2022-08-24T23:37:42.296Z,18.62
2022-08-24T23:40:12.422Z,18.67
2022-08-24T23:42:41.168Z,18.70
2022-08-24T23:45:13.107Z,18.68
2022-08-24T23:47:42.210Z,18.57
2022-08-24T23:50:12.021Z,18.53
2022-08-24T23:52:41.936Z,18.53
2022-08-24T23:55:21.190Z,18.52
2022-08-24T23:57:52.381Z,18.49
